createdAt,value
2022-11-20T00:00:16.555Z,17.97
2022-11-20T00:02:45.203Z,17.27
2022-11-20T00:05:13.595Z,17.73
2022-11-20T00:07:42.478Z,16.73
2022-11-20T00:10:11.793Z,19.10
2022-11-20T00:12:41.603Z,18.97
2022-11-20T00:15:11.084Z,19.93
2022-11-20T00:17:39.742Z,18.07
2022-11-20T00:20:08.557Z,18.07
2022-11-20T00:22:36.857Z,16.67
2022-11-20T00:25:05.369Z,20.37
2022-11-20T00:27:33.652Z,17.80
2022-11-20T00:30:03.482Z,16.10
2022-11-20T00:32:32.298Z,17.00
2022-11-20T00:35:01.457Z,18.93
2022-11-20T00:37:30.218Z,18.00
2022-11-20T00:39:58.827Z,19.20
2022-11-20T00:42:27.342Z,18.43
2022-11-20T00:44:57.323Z,18.33
2022-11-20T00:47:27.028Z,20.60
2022-11-20T00:49:55.370Z,20.27
2022-11-20T00:52:23.963Z,18.93
2022-11-20T00:54:52.578Z,18.13
2022-11-20T00:57:21.321Z,23.80
2022-11-20T00:59:50.005Z,18.60
2022-11-20T01:02:19.926Z,17.97
2022-11-20T01:04:49.634Z,16.43
2022-11-20T01:07:18.588Z,19.67
2022-11-20T01:09:46.994Z,16.87
2022-11-20T01:12:15.299Z,18.47
2022-11-20T01:14:44.196Z,20.67
2022-11-20T01:17:12.808Z,20.60
2022-11-20T01:19:41.200Z,18.07
2022-11-20T01:22:11.065Z,20.57
2022-11-20T01:24:39.456Z,16.87
2022-11-20T01:27:08.208Z,17.43
2022-11-20T01:29:36.607Z,19.33
2022-11-20T01:32:06.155Z,17.97
2022-11-20T01:34:34.610Z,19.53
2022-11-20T01:37:02.992Z,17.17
2022-11-20T01:39:32.878Z,17.00
2022-11-20T01:42:18.728Z,19.23
2022-11-20T01:44:51.166Z,18.37
2022-11-20T01:47:20.337Z,18.43
2022-11-20T01:49:49.518Z,20.63
2022-11-20T01:52:18.318Z,17.60
2022-11-20T01:54:49.183Z,18.37
2022-11-20T01:57:17.592Z,16.87
2022-11-20T01:59:47.116Z,17.17
2022-11-20T02:02:15.370Z,17.90
2022-11-20T02:04:43.725Z,17.23
2022-11-20T02:07:12.242Z,18.13
2022-11-20T02:09:40.730Z,18.87
2022-11-20T02:12:30.868Z,17.23
2022-11-20T02:14:59.044Z,18.37
2022-11-20T02:17:27.430Z,17.67
2022-11-20T02:19:55.700Z,18.33
2022-11-20T02:22:25.293Z,18.23
2022-11-20T02:24:54.977Z,16.83
2022-11-20T02:27:23.442Z,18.93
2022-11-20T02:29:52.943Z,17.53
2022-11-20T02:32:21.725Z,24.27
2022-11-20T02:34:50.057Z,15.90
2022-11-20T02:37:18.512Z,17.77
2022-11-20T02:39:46.944Z,20.80
2022-11-20T02:42:16.810Z,18.13
2022-11-20T02:44:45.167Z,18.60
2022-11-20T02:47:13.544Z,20.27
2022-11-20T02:49:41.928Z,15.67
2022-11-20T02:52:10.285Z,19.37
2022-11-20T02:54:38.689Z,19.03
2022-11-20T02:57:07.053Z,21.37
2022-11-20T02:59:36.947Z,18.57
2022-11-20T03:02:05.911Z,20.20
2022-11-20T03:04:34.313Z,20.23
2022-11-20T03:07:02.843Z,20.83
2022-11-20T03:09:31.242Z,18.77
2022-11-20T03:11:59.680Z,18.97
2022-11-20T03:14:28.093Z,19.53
2022-11-20T03:16:57.927Z,19.43
2022-11-20T03:19:26.489Z,19.30
2022-11-20T03:21:54.773Z,18.63
2022-11-20T03:24:23.108Z,19.53
2022-11-20T03:26:51.455Z,20.47
2022-11-20T03:29:20.014Z,21.87
2022-11-20T03:31:48.514Z,17.70
2022-11-20T03:34:18.328Z,20.73
2022-11-20T03:36:46.672Z,20.23
2022-11-20T03:39:15.066Z,21.07
2022-11-20T03:41:44.481Z,21.00
2022-11-20T03:44:13.424Z,19.50
2022-11-20T03:46:41.767Z,19.07
2022-11-20T03:49:10.058Z,23.83
2022-11-20T03:51:39.743Z,17.20
2022-11-20T03:54:08.621Z,20.70
2022-11-20T03:56:37.966Z,19.10
2022-11-20T03:59:06.386Z,18.87
2022-11-20T04:01:35.331Z,19.63
2022-11-20T04:04:03.807Z,20.40
2022-11-20T04:06:32.586Z,19.37
2022-11-20T04:09:02.388Z,20.73
2022-11-20T04:11:31.035Z,20.27
2022-11-20T04:13:59.862Z,19.93
2022-11-20T04:16:28.549Z,20.50
2022-11-20T04:18:57.457Z,20.73
2022-11-20T04:21:25.784Z,21.40
2022-11-20T04:23:54.392Z,22.97
2022-11-20T04:26:24.011Z,20.20
2022-11-20T04:28:52.369Z,20.20
2022-11-20T04:31:20.991Z,22.63
2022-11-20T04:33:49.490Z,21.57
2022-11-20T04:36:18.297Z,20.00
2022-11-20T04:38:46.740Z,20.00
2022-11-20T04:41:16.488Z,20.93
2022-11-20T04:43:47.989Z,22.67
2022-11-20T04:46:16.375Z,20.27
2022-11-20T04:48:44.755Z,16.90
2022-11-20T04:51:13.446Z,21.60
2022-11-20T04:53:41.790Z,20.80
2022-11-20T04:56:10.960Z,20.43
2022-11-20T04:58:39.270Z,19.47
2022-11-20T05:01:09.487Z,18.53
2022-11-20T05:03:42.134Z,19.10
2022-11-20T05:06:10.944Z,21.20
2022-11-20T05:08:39.364Z,20.50
2022-11-20T05:11:08.742Z,21.27
2022-11-20T05:13:37.155Z,21.53
2022-11-20T05:16:05.958Z,20.83
2022-11-20T05:18:36.032Z,20.07
2022-11-20T05:21:04.338Z,19.50
2022-11-20T05:23:32.847Z,20.57
2022-11-20T05:26:01.329Z,19.77
2022-11-20T05:28:30.286Z,20.40
2022-11-20T05:30:58.596Z,19.53
2022-11-20T05:33:26.890Z,19.10
2022-11-20T05:35:56.625Z,19.47
2022-11-20T05:38:24.996Z,19.13
2022-11-20T05:40:53.494Z,21.07
2022-11-20T05:43:21.865Z,19.87
2022-11-20T05:45:54.860Z,18.27
2022-11-20T05:48:23.127Z,18.53
2022-11-20T05:50:51.547Z,22.23
2022-11-20T05:53:21.329Z,24.23
2022-11-20T05:55:49.768Z,20.87
2022-11-20T05:58:18.053Z,21.73
2022-11-20T06:00:46.502Z,22.47
2022-11-20T06:03:14.833Z,22.43
2022-11-20T06:05:43.187Z,20.87
2022-11-20T06:08:11.620Z,22.13
2022-11-20T06:10:41.361Z,20.53
2022-11-20T06:13:09.757Z,22.97
2022-11-20T06:15:38.059Z,24.50
2022-11-20T06:18:06.569Z,20.60
2022-11-20T06:20:40.772Z,24.63
2022-11-20T06:23:10.398Z,21.97
2022-11-20T06:25:41.421Z,25.53
2022-11-20T06:28:09.815Z,23.83
2022-11-20T06:30:38.206Z,22.83
2022-11-20T06:33:06.611Z,23.40
2022-11-20T06:35:35.050Z,20.17
2022-11-20T06:38:03.431Z,22.37
2022-11-20T06:40:31.750Z,21.60
2022-11-20T06:43:01.402Z,22.87
2022-11-20T06:45:29.792Z,20.20
2022-11-20T06:48:00.015Z,21.87
2022-11-20T06:50:28.394Z,20.93
2022-11-20T06:52:56.729Z,20.67
2022-11-20T06:55:25.060Z,20.97
2022-11-20T06:57:55.904Z,20.17
2022-11-20T07:00:25.819Z,20.03
2022-11-20T07:02:54.617Z,18.87
2022-11-20T07:05:23.101Z,23.80
2022-11-20T07:07:51.554Z,23.03
2022-11-20T07:10:19.919Z,23.57
2022-11-20T07:12:52.422Z,22.00
2022-11-20T07:15:20.826Z,26.90
2022-11-20T07:17:50.642Z,23.97
2022-11-20T07:20:19.065Z,20.97
2022-11-20T07:22:47.438Z,23.13
2022-11-20T07:25:15.724Z,23.17
2022-11-20T07:27:44.085Z,23.80
2022-11-20T07:30:12.704Z,22.03
2022-11-20T07:32:41.012Z,25.90
2022-11-20T07:35:12.798Z,20.67
2022-11-20T07:37:41.358Z,22.83
2022-11-20T07:40:09.920Z,23.07
2022-11-20T07:42:38.345Z,23.80
2022-11-20T07:45:07.168Z,24.07
2022-11-20T07:47:37.818Z,25.83
2022-11-20T07:50:06.521Z,21.43
2022-11-20T07:52:36.373Z,22.83
2022-11-20T07:55:04.700Z,25.80
2022-11-20T07:57:33.120Z,22.37
2022-11-20T08:00:01.579Z,23.03
2022-11-20T08:02:30.034Z,26.13
2022-11-20T08:04:58.619Z,23.97
2022-11-20T08:07:27.067Z,25.57
2022-11-20T08:09:56.851Z,26.53
2022-11-20T08:12:42.811Z,24.10
2022-11-20T08:15:13.322Z,25.57
2022-11-20T08:17:41.845Z,24.47
2022-11-20T08:20:10.726Z,26.77
2022-11-20T08:22:39.016Z,24.27
2022-11-20T08:25:09.235Z,25.43
2022-11-20T08:27:38.937Z,22.47
2022-11-20T08:30:08.167Z,23.57
2022-11-20T08:32:38.435Z,26.33
2022-11-20T08:35:07.023Z,24.90
2022-11-20T08:37:35.440Z,27.80
2022-11-20T08:40:03.792Z,25.77
2022-11-20T08:42:33.500Z,23.80
2022-11-20T08:45:01.850Z,26.53
2022-11-20T08:47:30.205Z,26.53
2022-11-20T08:49:58.664Z,23.37
2022-11-20T08:52:27.031Z,26.50
2022-11-20T08:54:55.410Z,25.37
2022-11-20T08:57:24.609Z,26.57
2022-11-20T09:00:10.121Z,23.10
2022-11-20T09:02:39.369Z,25.33
2022-11-20T09:05:08.114Z,24.97
2022-11-20T09:07:39.673Z,24.33
2022-11-20T09:10:25.043Z,27.50
2022-11-20T09:12:53.636Z,25.73
2022-11-20T09:15:23.356Z,28.33
2022-11-20T09:17:54.748Z,29.53
2022-11-20T09:20:23.229Z,29.37
2022-11-20T09:22:51.503Z,29.17
2022-11-20T09:25:20.154Z,30.40
2022-11-20T09:27:48.415Z,32.23
2022-11-20T09:30:17.029Z,29.67
2022-11-20T09:32:46.718Z,29.60
2022-11-20T09:35:15.584Z,27.17
2022-11-20T09:37:43.924Z,31.07
2022-11-20T09:40:13.091Z,32.13
2022-11-20T09:42:42.517Z,29.23
2022-11-20T09:45:23.817Z,32.73
2022-11-20T09:48:12.202Z,31.37
2022-11-20T09:50:44.222Z,25.77
2022-11-20T09:53:16.547Z,29.97
2022-11-20T09:55:44.913Z,35.03
2022-11-20T09:58:16.097Z,30.73
2022-11-20T10:00:44.826Z,30.73
2022-11-20T10:03:20.699Z,31.20
2022-11-20T10:05:49.464Z,33.37
2022-11-20T10:08:25.181Z,34.50
2022-11-20T10:10:55.826Z,33.87
2022-11-20T10:13:27.652Z,35.40
2022-11-20T10:15:58.448Z,37.47
2022-11-20T10:18:32.610Z,32.47
2022-11-20T10:21:02.419Z,31.90
2022-11-20T10:23:37.796Z,32.87
2022-11-20T10:26:06.888Z,30.33
2022-11-20T10:28:41.328Z,36.00
2022-11-20T10:31:11.401Z,33.43
2022-11-20T10:33:57.460Z,34.70
2022-11-20T10:36:30.645Z,32.93
2022-11-20T10:38:59.755Z,38.30
2022-11-20T10:41:31.960Z,39.50
2022-11-20T10:44:04.609Z,34.67
2022-11-20T10:46:35.861Z,33.83
2022-11-20T10:49:06.345Z,35.67
2022-11-20T10:51:37.543Z,36.63
2022-11-20T10:54:12.852Z,35.33
2022-11-20T10:56:46.881Z,34.10
2022-11-20T10:59:29.639Z,34.47
2022-11-20T11:01:59.792Z,36.90
2022-11-20T11:04:35.725Z,36.87
2022-11-20T11:07:08.375Z,35.57
2022-11-20T11:09:37.395Z,35.47
2022-11-20T11:12:10.289Z,36.57
2022-11-20T11:14:45.275Z,37.00
2022-11-20T11:17:21.965Z,39.50
2022-11-20T11:20:02.346Z,39.73
2022-11-20T11:22:32.154Z,38.90
2022-11-20T11:25:00.824Z,39.67
2022-11-20T11:27:29.555Z,40.90
2022-11-20T11:30:04.523Z,41.27
2022-11-20T11:32:32.911Z,40.80
2022-11-20T11:35:03.224Z,40.00
2022-11-20T11:37:35.052Z,40.27
2022-11-20T11:40:23.562Z,37.80
2022-11-20T11:42:54.219Z,39.40
2022-11-20T11:45:21.806Z,38.07
2022-11-20T11:47:50.494Z,37.97
2022-11-20T11:50:21.805Z,36.83
2022-11-20T11:52:55.488Z,40.47
2022-11-20T11:55:27.811Z,41.33
2022-11-20T11:57:58.504Z,39.10
2022-11-20T12:00:26.995Z,38.07
2022-11-20T12:02:57.480Z,41.63
2022-11-20T12:05:27.891Z,45.10
2022-11-20T12:07:57.601Z,44.10
2022-11-20T12:10:27.724Z,43.40
2022-11-20T12:12:58.941Z,43.23
2022-11-20T12:15:31.948Z,44.07
2022-11-20T12:18:00.712Z,46.73
2022-11-20T12:20:31.098Z,42.67
2022-11-20T12:23:02.586Z,46.20
2022-11-20T12:25:31.281Z,48.10
2022-11-20T12:28:14.741Z,52.40
2022-11-20T12:30:44.435Z,48.67
2022-11-20T12:33:19.679Z,52.13
2022-11-20T12:35:54.000Z,45.33
2022-11-20T12:38:29.192Z,51.97
2022-11-20T12:40:59.419Z,46.97
2022-11-20T12:43:45.312Z,54.63
2022-11-20T12:46:17.465Z,46.40
2022-11-20T12:48:50.265Z,49.70
2022-11-20T12:51:28.737Z,49.50
2022-11-20T12:54:01.278Z,50.27
2022-11-20T12:56:32.292Z,51.50
2022-11-20T12:59:03.476Z,55.27
2022-11-20T13:01:43.577Z,51.50
2022-11-20T13:04:16.740Z,53.70
2022-11-20T13:06:46.980Z,47.57
2022-11-20T13:09:16.039Z,53.63
2022-11-20T13:11:46.131Z,48.83
2022-11-20T13:14:17.228Z,54.13
2022-11-20T13:16:48.107Z,55.97
2022-11-20T13:19:17.017Z,54.43
2022-11-20T13:21:51.439Z,51.43
2022-11-20T13:24:27.040Z,52.80
2022-11-20T13:27:15.927Z,63.30
2022-11-20T13:29:47.475Z,54.00
2022-11-20T13:32:16.946Z,51.63
2022-11-20T13:34:54.543Z,56.33
2022-11-20T13:37:35.474Z,53.10
2022-11-20T13:40:17.042Z,63.73
2022-11-20T13:42:46.698Z,60.67
2022-11-20T13:45:24.385Z,57.63
2022-11-20T13:47:52.762Z,58.63
2022-11-20T13:50:21.130Z,50.03
2022-11-20T13:52:52.445Z,56.43
2022-11-20T13:55:24.849Z,52.37
2022-11-20T13:58:02.322Z,58.03
2022-11-20T14:00:30.947Z,50.60
2022-11-20T14:03:03.892Z,58.53
2022-11-20T14:05:38.951Z,57.80
2022-11-20T14:08:10.014Z,53.47
2022-11-20T14:10:40.224Z,55.80
2022-11-20T14:13:17.989Z,59.17
2022-11-20T14:15:46.565Z,57.07
2022-11-20T14:18:15.381Z,57.07
2022-11-20T14:20:43.847Z,62.77
2022-11-20T14:23:13.761Z,56.03
2022-11-20T14:25:45.018Z,62.50
2022-11-20T14:28:13.373Z,52.53
2022-11-20T14:30:42.235Z,61.57
2022-11-20T14:33:12.803Z,54.23
2022-11-20T14:35:43.445Z,56.57
2022-11-20T14:38:13.888Z,59.20
2022-11-20T14:40:43.373Z,56.47
2022-11-20T14:43:19.671Z,55.17
2022-11-20T14:45:48.260Z,55.47
2022-11-20T14:48:16.664Z,57.00
2022-11-20T14:50:45.052Z,53.70
2022-11-20T14:53:14.961Z,60.00
2022-11-20T14:55:43.459Z,56.10
2022-11-20T14:58:23.218Z,62.70
2022-11-20T15:00:59.925Z,55.23
2022-11-20T15:03:33.822Z,57.80
2022-11-20T15:06:02.215Z,59.63
2022-11-20T15:08:32.098Z,61.33
2022-11-20T15:11:00.405Z,54.10
2022-11-20T15:13:30.038Z,56.17
2022-11-20T15:15:59.868Z,54.17
2022-11-20T15:18:29.732Z,49.10
2022-11-20T15:20:58.235Z,51.53
2022-11-20T15:23:26.657Z,52.03
2022-11-20T15:25:56.389Z,57.83
2022-11-20T15:28:32.874Z,55.93
2022-11-20T15:31:01.266Z,55.27
2022-11-20T15:33:29.946Z,53.23
2022-11-20T15:35:58.340Z,50.20
2022-11-20T15:38:26.739Z,51.80
2022-11-20T15:40:56.673Z,54.23
2022-11-20T15:43:25.161Z,51.47
2022-11-20T15:45:53.884Z,57.23
2022-11-20T15:48:22.768Z,52.77
2022-11-20T15:50:52.892Z,52.00
2022-11-20T15:53:21.318Z,54.43
2022-11-20T15:55:49.754Z,59.40
2022-11-20T15:58:19.505Z,57.70
2022-11-20T16:00:47.841Z,55.53
2022-11-20T16:03:16.302Z,52.30
2022-11-20T16:05:44.724Z,57.73
2022-11-20T16:08:13.162Z,57.90
2022-11-20T16:10:41.488Z,55.10
2022-11-20T16:13:31.624Z,51.93
2022-11-20T16:16:01.677Z,49.57
2022-11-20T16:18:30.027Z,47.37
2022-11-20T16:20:58.411Z,45.53
2022-11-20T16:23:26.763Z,48.20
2022-11-20T16:25:55.343Z,46.20
2022-11-20T16:28:23.774Z,50.63
2022-11-20T16:30:52.159Z,51.07
2022-11-20T16:33:22.151Z,50.90
2022-11-20T16:35:50.551Z,50.47
2022-11-20T16:38:18.978Z,50.50
2022-11-20T16:40:47.352Z,47.37
2022-11-20T16:43:15.943Z,49.03
2022-11-20T16:45:44.547Z,50.00
2022-11-20T16:48:16.127Z,48.07
2022-11-20T16:50:49.643Z,55.07
2022-11-20T16:53:18.206Z,52.87
2022-11-20T16:55:46.469Z,48.97
2022-11-20T16:58:14.887Z,51.80
2022-11-20T17:00:48.466Z,58.27
2022-11-20T17:03:21.155Z,51.27
2022-11-20T17:06:00.615Z,52.93
2022-11-20T17:08:30.604Z,50.30
2022-11-20T17:11:06.704Z,49.77
2022-11-20T17:13:39.648Z,48.47
2022-11-20T17:16:09.045Z,53.00
2022-11-20T17:18:37.458Z,50.00
2022-11-20T17:21:07.512Z,44.90
2022-11-20T17:23:36.294Z,44.57
2022-11-20T17:26:05.351Z,49.17
2022-11-20T17:28:34.642Z,46.83
2022-11-20T17:31:03.234Z,47.63
2022-11-20T17:33:31.645Z,51.43
2022-11-20T17:36:00.002Z,48.90
2022-11-20T17:38:29.817Z,47.53
2022-11-20T17:41:03.471Z,48.53
2022-11-20T17:43:35.686Z,46.60
2022-11-20T17:46:06.252Z,50.77
2022-11-20T17:48:34.694Z,49.77
2022-11-20T17:51:03.111Z,48.13
2022-11-20T17:53:34.736Z,49.37
2022-11-20T17:56:21.224Z,45.93
2022-11-20T17:58:49.572Z,45.23
2022-11-20T18:01:17.964Z,45.33
2022-11-20T18:03:46.297Z,51.30
2022-11-20T18:06:14.994Z,47.63
2022-11-20T18:08:44.705Z,44.37
2022-11-20T18:11:13.403Z,40.47
2022-11-20T18:13:59.315Z,43.17
2022-11-20T18:16:27.748Z,48.60
2022-11-20T18:18:56.422Z,47.77
2022-11-20T18:21:25.064Z,52.07
2022-11-20T18:23:54.867Z,50.03
2022-11-20T18:26:23.435Z,44.27
2022-11-20T18:28:51.767Z,43.83
2022-11-20T18:31:20.322Z,40.23
2022-11-20T18:33:48.725Z,45.97
2022-11-20T18:36:18.477Z,47.93
2022-11-20T18:38:47.161Z,48.23
2022-11-20T18:41:31.126Z,45.13
2022-11-20T18:44:17.446Z,51.27
2022-11-20T18:46:46.284Z,48.00
2022-11-20T18:49:14.627Z,46.73
2022-11-20T18:51:44.095Z,48.10
2022-11-20T18:54:12.499Z,50.83
2022-11-20T18:56:42.176Z,57.17
2022-11-20T18:59:11.253Z,57.37
2022-11-20T19:01:39.714Z,53.80
2022-11-20T19:04:08.500Z,58.27
2022-11-20T19:06:36.884Z,51.80
2022-11-20T19:09:06.345Z,56.47
2022-11-20T19:11:34.604Z,53.13
2022-11-20T19:14:04.571Z,57.87
2022-11-20T19:16:33.028Z,54.17
2022-11-20T19:19:03.391Z,52.10
2022-11-20T19:21:34.391Z,52.07
2022-11-20T19:24:05.325Z,49.30
2022-11-20T19:26:33.789Z,50.57
2022-11-20T19:29:02.088Z,50.53
2022-11-20T19:31:31.801Z,47.33
2022-11-20T19:34:00.812Z,49.97
2022-11-20T19:36:29.806Z,50.67
2022-11-20T19:38:58.739Z,47.50
2022-11-20T19:41:29.097Z,51.40
2022-11-20T19:44:00.743Z,50.87
2022-11-20T19:46:29.464Z,56.67
2022-11-20T19:48:59.234Z,53.07
2022-11-20T19:51:28.033Z,53.43
2022-11-20T19:53:56.830Z,46.93
2022-11-20T19:56:25.227Z,56.97
2022-11-20T19:58:54.777Z,59.90
2022-11-20T20:01:24.170Z,57.67
2022-11-20T20:03:52.531Z,51.03
2022-11-20T20:06:22.671Z,49.43
2022-11-20T20:08:55.562Z,44.73
2022-11-20T20:11:24.385Z,47.20
2022-11-20T20:13:53.481Z,46.40
2022-11-20T20:16:22.392Z,47.87
2022-11-20T20:18:50.700Z,43.57
2022-11-20T20:21:19.339Z,34.83
2022-11-20T20:23:49.597Z,37.13
2022-11-20T20:26:17.911Z,28.37
2022-11-20T20:28:46.591Z,29.10
2022-11-20T20:31:15.428Z,26.87
2022-11-20T20:33:44.766Z,28.73
2022-11-20T20:36:13.755Z,20.60
2022-11-20T20:38:46.764Z,17.90
2022-11-20T20:41:17.000Z,21.50
2022-11-20T20:44:02.938Z,22.70
2022-11-20T20:46:31.228Z,19.63
2022-11-20T20:48:59.630Z,35.77
2022-11-20T20:51:28.017Z,16.37
2022-11-20T20:53:56.371Z,18.50
2022-11-20T20:56:26.092Z,28.37
2022-11-20T20:58:54.455Z,22.20
2022-11-20T21:01:22.981Z,14.53
2022-11-20T21:03:51.439Z,29.03
2022-11-20T21:06:19.929Z,21.90
2022-11-20T21:08:48.474Z,26.00
2022-11-20T21:11:17.303Z,20.40
2022-11-20T21:13:47.231Z,24.70
2022-11-20T21:16:16.077Z,23.07
2022-11-20T21:18:44.379Z,19.33
2022-11-20T21:21:42.124Z,22.63
2022-11-20T21:24:10.491Z,20.23
2022-11-20T21:26:38.844Z,20.93
2022-11-20T21:29:08.622Z,19.33
2022-11-20T21:31:37.482Z,21.77
2022-11-20T21:34:05.842Z,25.47
2022-11-20T21:36:34.207Z,21.63
2022-11-20T21:39:02.537Z,18.17
2022-11-20T21:41:31.300Z,21.00
2022-11-20T21:44:29.529Z,27.43
2022-11-20T21:46:49.922Z,18.07
2022-11-20T21:49:19.635Z,7.60
2022-11-20T21:51:47.987Z,15.23
2022-11-20T21:54:17.527Z,14.83
2022-11-20T21:56:45.936Z,11.50
2022-11-20T21:59:14.618Z,12.50
2022-11-20T22:01:43.047Z,14.17
2022-11-20T22:04:15.595Z,25.13
2022-11-20T22:06:43.916Z,17.53
2022-11-20T22:09:12.527Z,17.97
2022-11-20T22:11:41.294Z,18.00
2022-11-20T22:14:24.036Z,15.40
2022-11-20T22:16:53.237Z,14.83
2022-11-20T22:19:23.157Z,16.53
2022-11-20T22:21:51.743Z,9.37
2022-11-20T22:24:21.108Z,14.70
2022-11-20T22:26:49.669Z,20.37
2022-11-20T22:29:18.216Z,20.23
2022-11-20T22:31:47.932Z,11.33
2022-11-20T22:34:16.481Z,13.13
2022-11-20T22:36:46.137Z,17.73
2022-11-20T22:39:14.592Z,18.73
2022-11-20T22:41:46.079Z,14.77
2022-11-20T22:44:14.538Z,10.93
2022-11-20T22:46:42.940Z,13.13
2022-11-20T22:49:11.854Z,14.50
2022-11-20T22:51:40.457Z,13.13
2022-11-20T22:54:14.690Z,20.13
2022-11-20T22:56:43.373Z,19.87
2022-11-20T22:59:12.515Z,16.53
2022-11-20T23:01:40.862Z,16.67
2022-11-20T23:04:10.757Z,18.27
2022-11-20T23:06:39.205Z,19.23
2022-11-20T23:09:07.710Z,16.00
2022-11-20T23:11:37.399Z,21.37
2022-11-20T23:14:06.293Z,20.40
2022-11-20T23:16:34.769Z,25.03
2022-11-20T23:19:03.716Z,27.97
2022-11-20T23:21:31.978Z,27.37
2022-11-20T23:24:00.428Z,28.73
2022-11-20T23:26:29.277Z,24.57
2022-11-20T23:28:59.504Z,30.53
2022-11-20T23:31:28.018Z,28.63
2022-11-20T23:33:56.549Z,29.83
2022-11-20T23:36:24.807Z,32.37
2022-11-20T23:38:53.103Z,29.17
2022-11-20T23:41:21.466Z,32.83
2022-11-20T23:43:49.798Z,31.17
2022-11-20T23:46:19.621Z,33.57
2022-11-20T23:48:47.991Z,30.67
2022-11-20T23:51:16.744Z,35.93
2022-11-20T23:53:45.026Z,33.57
2022-11-20T23:56:14.557Z,32.03
2022-11-20T23:58:43.137Z,32.93
